createdAt,value
2019-04-21T00:00:55.181Z,20.55
2019-04-21T00:01:50.562Z,20.44
2019-04-21T00:02:49.209Z,20.47
2019-04-21T00:03:52.191Z,20.40
2019-04-21T00:04:58.009Z,20.52
2019-04-21T00:06:09.410Z,20.56
2019-04-21T00:07:11.746Z,20.55
2019-04-21T00:08:10.879Z,20.52
2019-04-21T00:09:11.439Z,20.51
2019-04-21T00:10:07.591Z,20.48
2019-04-21T00:11:09.709Z,20.52
2019-04-21T00:12:07.519Z,20.41
2019-04-21T00:13:02.169Z,20.52
2019-04-21T00:14:03.632Z,20.48
2019-04-21T00:14:57.855Z,20.55
2019-04-21T00:15:57.134Z,20.44
2019-04-21T00:16:55.580Z,20.52
2019-04-21T00:17:52.711Z,20.51
2019-04-21T00:18:54.857Z,20.52
2019-04-21T00:19:47.773Z,20.47
2019-04-21T00:20:52.685Z,20.47
2019-04-21T00:21:53.528Z,20.40
2019-04-21T00:22:58.718Z,20.56
2019-04-21T00:24:04.848Z,20.41
2019-04-21T00:25:04.091Z,20.51
2019-04-21T00:25:59.373Z,20.50
2019-04-21T00:27:05.286Z,20.47
2019-04-21T00:28:09.317Z,20.52
2019-04-21T00:29:11.147Z,20.51
2019-04-21T00:30:14.225Z,20.44
2019-04-21T00:31:06.502Z,20.47
2019-04-21T00:32:03.344Z,20.40
2019-04-21T00:32:56.426Z,20.47
2019-04-21T00:33:49.658Z,20.50
2019-04-21T00:34:51.193Z,20.44
2019-04-21T00:35:54.965Z,20.52
2019-04-21T00:36:56.023Z,20.44
2019-04-21T00:38:08.263Z,20.47
2019-04-21T00:39:24.760Z,20.47
2019-04-21T00:40:09.481Z,20.50
2019-04-21T00:41:08.790Z,20.44
2019-04-21T00:42:08.617Z,20.40
2019-04-21T00:43:03.592Z,20.56
2019-04-21T00:44:02.057Z,20.51
2019-04-21T00:45:04.915Z,20.51
2019-04-21T00:45:57.811Z,20.47
2019-04-21T00:47:00.674Z,20.47
2019-04-21T00:48:14.400Z,20.44
2019-04-21T00:49:03.098Z,20.43
2019-04-21T00:50:10.983Z,20.47
2019-04-21T00:52:24.404Z,20.43
2019-04-21T00:53:05.535Z,20.36
2019-04-21T00:54:13.104Z,20.41
2019-04-21T00:55:25.065Z,20.36
2019-04-21T00:56:34.150Z,20.50
2019-04-21T00:57:18.029Z,20.48
2019-04-21T00:58:13.134Z,20.43
2019-04-21T00:59:19.946Z,20.43
2019-04-21T01:00:20.686Z,20.44
2019-04-21T01:01:15.017Z,20.43
2019-04-21T01:02:05.629Z,20.41
2019-04-21T01:03:14.673Z,20.43
2019-04-21T01:04:17.087Z,20.44
2019-04-21T01:05:19.376Z,20.40
2019-04-21T01:06:19.108Z,20.47
2019-04-21T01:07:12.780Z,20.32
2019-04-21T01:08:09.401Z,20.39
2019-04-21T01:09:09.580Z,20.41
2019-04-21T01:10:03.815Z,20.47
2019-04-21T01:11:11.732Z,20.50
2019-04-21T01:12:08.077Z,20.50
2019-04-21T01:13:12.879Z,20.44
2019-04-21T01:14:16.188Z,20.47
2019-04-21T01:15:09.235Z,20.47
2019-04-21T01:16:05.842Z,20.40
2019-04-21T01:17:13.042Z,20.41
2019-04-21T01:18:10.377Z,20.51
2019-04-21T01:19:05.343Z,20.44
2019-04-21T01:20:01.409Z,20.43
2019-04-21T01:20:46.965Z,20.39
2019-04-21T01:21:45.684Z,20.47
2019-04-21T01:22:46.125Z,20.39
2019-04-21T01:23:46.498Z,20.51
2019-04-21T01:24:49.116Z,20.47
2019-04-21T01:26:05.210Z,20.48
2019-04-21T01:26:56.779Z,20.43
2019-04-21T01:28:02.323Z,20.43
2019-04-21T01:29:07.004Z,20.43
2019-04-21T01:30:14.224Z,20.44
2019-04-21T01:31:05.033Z,20.48
2019-04-21T01:32:12.359Z,20.44
2019-04-21T01:33:07.572Z,20.47
2019-04-21T01:34:13.387Z,20.51
2019-04-21T01:35:10.203Z,20.48
2019-04-21T01:36:05.437Z,20.44
2019-04-21T01:37:06.140Z,20.39
2019-04-21T01:38:06.779Z,20.32
2019-04-21T01:39:13.191Z,20.47
2019-04-21T01:40:09.716Z,20.29
2019-04-21T01:41:13.238Z,20.43
2019-04-21T01:42:09.505Z,20.29
2019-04-21T01:43:11.534Z,20.52
2019-04-21T01:44:04.974Z,20.37
2019-04-21T01:45:04.363Z,20.41
2019-04-21T01:46:06.642Z,20.43
2019-04-21T01:47:02.873Z,20.47
2019-04-21T01:48:01.320Z,20.50
2019-04-21T01:49:03.365Z,20.52
2019-04-21T01:49:55.613Z,20.40
2019-04-21T01:51:01.545Z,20.31
2019-04-21T01:52:22.213Z,20.50
2019-04-21T01:53:15.459Z,20.47
2019-04-21T01:54:12.515Z,20.39
2019-04-21T01:55:08.372Z,20.48
2019-04-21T01:56:09.306Z,20.36
2019-04-21T01:57:02.056Z,20.32
2019-04-21T01:58:01.443Z,20.32
2019-04-21T01:58:58.381Z,20.31
2019-04-21T01:59:56.986Z,20.36
2019-04-21T02:01:03.483Z,20.41
2019-04-21T02:02:05.294Z,20.37
2019-04-21T02:03:22.649Z,20.43
2019-04-21T02:04:06.896Z,20.36
2019-04-21T02:05:10.538Z,20.43
2019-04-21T02:06:13.692Z,20.37
2019-04-21T02:07:11.606Z,20.32
2019-04-21T02:08:08.145Z,20.34
2019-04-21T02:09:04.965Z,20.51
2019-04-21T02:10:11.245Z,20.44
2019-04-21T02:11:13.879Z,20.47
2019-04-21T02:12:08.672Z,20.51
2019-04-21T02:13:03.467Z,20.40
2019-04-21T02:14:09.835Z,20.39
2019-04-21T02:15:14.281Z,20.34
2019-04-21T02:16:06.858Z,20.40
2019-04-21T02:17:07.904Z,20.36
2019-04-21T02:18:07.024Z,20.39
2019-04-21T02:19:08.358Z,20.48
2019-04-21T02:20:02.741Z,20.34
2019-04-21T02:20:55.392Z,20.37
2019-04-21T02:21:59.298Z,20.36
2019-04-21T02:23:20.425Z,20.43
2019-04-21T02:24:16.251Z,20.36
2019-04-21T02:25:11.302Z,20.48
2019-04-21T02:26:12.702Z,20.40
2019-04-21T02:27:07.592Z,20.40
2019-04-21T02:28:16.474Z,20.39
2019-04-21T02:29:08.453Z,20.40
2019-04-21T02:30:16.398Z,20.40
2019-04-21T02:32:14.770Z,20.34
2019-04-21T02:33:28.015Z,20.37
2019-04-21T02:34:37.944Z,20.36
2019-04-21T02:35:25.459Z,20.48
2019-04-21T02:36:30.960Z,20.43
2019-04-21T02:38:16.531Z,20.34
2019-04-21T02:39:40.818Z,20.39
2019-04-21T02:41:12.873Z,20.39
2019-04-21T02:42:19.882Z,20.36
2019-04-21T02:43:19.122Z,20.34
2019-04-21T02:45:17.293Z,20.32
2019-04-21T02:46:27.098Z,20.39
2019-04-21T02:47:21.666Z,20.34
2019-04-21T02:48:22.636Z,20.52
2019-04-21T02:49:22.016Z,20.32
2019-04-21T02:50:21.545Z,20.36
2019-04-21T02:51:25.614Z,20.32
2019-04-21T02:52:26.544Z,20.32
2019-04-21T02:53:21.270Z,20.37
2019-04-21T02:54:42.033Z,20.39
2019-04-21T02:55:17.886Z,20.32
2019-04-21T02:56:18.000Z,20.39
2019-04-21T02:57:15.678Z,20.40
2019-04-21T02:58:28.746Z,20.28
2019-04-21T03:00:32.914Z,20.36
2019-04-21T03:01:29.150Z,20.32
2019-04-21T03:03:19.927Z,20.36
2019-04-21T03:06:16.865Z,20.32
2019-04-21T03:08:15.102Z,20.36
2019-04-21T03:09:18.327Z,20.37
2019-04-21T03:10:22.263Z,20.44
2019-04-21T03:12:17.997Z,20.31
2019-04-21T03:13:21.846Z,20.32
2019-04-21T03:14:16.454Z,20.37
2019-04-21T03:17:23.930Z,20.39
2019-04-21T03:18:19.601Z,20.34
2019-04-21T03:19:25.305Z,20.39
2019-04-21T03:20:18.937Z,20.34
2019-04-21T03:21:16.274Z,20.32
2019-04-21T03:23:19.158Z,20.36
2019-04-21T03:24:24.434Z,20.34
2019-04-21T03:25:25.149Z,20.32
2019-04-21T03:26:28.250Z,20.34
2019-04-21T03:28:26.303Z,20.40
2019-04-21T03:29:19.655Z,20.36
2019-04-21T03:30:55.602Z,20.36
2019-04-21T03:31:49.685Z,20.36
2019-04-21T03:35:54.304Z,20.36
2019-04-21T03:37:35.380Z,20.36
2019-04-21T03:38:19.160Z,20.36
2019-04-21T03:40:22.164Z,20.39
2019-04-21T03:42:38.839Z,20.34
2019-04-21T03:45:03.669Z,20.39
2019-04-21T03:45:49.737Z,20.36
2019-04-21T03:48:11.418Z,20.37
2019-04-21T03:49:20.777Z,20.32
2019-04-21T03:50:13.098Z,20.36
2019-04-21T03:51:02.661Z,20.34
2019-04-21T03:52:15.068Z,20.36
2019-04-21T03:53:16.753Z,20.36
2019-04-21T03:54:00.092Z,20.36
2019-04-21T03:55:12.427Z,20.32
2019-04-21T03:56:02.785Z,20.37
2019-04-21T03:59:03.758Z,20.37
2019-04-21T04:00:11.025Z,20.39
2019-04-21T04:01:04.129Z,20.37
2019-04-21T04:02:08.628Z,20.32
2019-04-21T04:03:23.712Z,20.32
2019-04-21T04:04:14.967Z,20.31
2019-04-21T04:05:12.719Z,20.40
2019-04-21T04:06:20.681Z,20.37
2019-04-21T04:08:17.253Z,20.32
2019-04-21T04:11:17.003Z,20.34
2019-04-21T04:13:05.906Z,20.32
2019-04-21T04:15:04.111Z,20.34
2019-04-21T04:16:06.622Z,20.34
2019-04-21T04:18:04.134Z,20.37
2019-04-21T04:19:19.236Z,20.32
2019-04-21T04:20:09.147Z,20.36
2019-04-21T04:21:16.880Z,20.36
2019-04-21T04:23:13.942Z,20.36
2019-04-21T04:25:07.428Z,20.37
2019-04-21T04:26:07.585Z,20.34
2019-04-21T04:27:22.605Z,20.37
2019-04-21T04:28:09.858Z,20.34
2019-04-21T04:29:59.079Z,20.34
2019-04-21T04:30:18.699Z,20.34
2019-04-21T04:31:15.237Z,20.31
2019-04-21T04:32:07.968Z,20.32
2019-04-21T04:33:12.354Z,20.39
2019-04-21T04:34:24.838Z,20.34
2019-04-21T04:35:12.482Z,20.31
2019-04-21T04:36:10.972Z,20.40
2019-04-21T04:38:03.284Z,20.32
2019-04-21T04:39:14.243Z,20.29
2019-04-21T04:40:10.766Z,20.32
2019-04-21T04:41:14.619Z,20.32
2019-04-21T04:42:16.143Z,20.39
2019-04-21T04:43:13.194Z,20.39
2019-04-21T04:44:14.284Z,20.37
2019-04-21T04:45:58.853Z,20.34
2019-04-21T04:47:10.364Z,20.41
2019-04-21T04:48:05.980Z,20.34
2019-04-21T04:49:18.266Z,20.32
2019-04-21T04:49:59.467Z,20.34
2019-04-21T04:51:22.933Z,20.36
2019-04-21T04:52:18.890Z,20.41
2019-04-21T04:53:01.219Z,20.34
2019-04-21T04:54:16.591Z,20.32
2019-04-21T04:55:06.770Z,20.32
2019-04-21T04:56:07.695Z,20.32
2019-04-21T04:57:16.120Z,20.34
2019-04-21T05:00:01.771Z,20.32
2019-04-21T05:02:00.310Z,20.36
2019-04-21T05:03:56.917Z,20.34
2019-04-21T05:05:16.655Z,20.41
2019-04-21T05:06:06.061Z,20.34
2019-04-21T05:07:57.752Z,20.39
2019-04-21T05:09:03.355Z,20.36
2019-04-21T05:09:55.487Z,20.31
2019-04-21T05:11:08.251Z,20.39
2019-04-21T05:11:48.848Z,20.40
2019-04-21T05:12:53.130Z,20.34
2019-04-21T05:14:03.084Z,20.37
2019-04-21T05:14:57.074Z,20.40
2019-04-21T05:15:50.288Z,20.39
2019-04-21T05:16:55.826Z,20.36
2019-04-21T05:17:53.834Z,20.39
2019-04-21T05:19:08.444Z,20.32
2019-04-21T05:21:09.091Z,20.36
2019-04-21T05:21:45.452Z,20.36
2019-04-21T05:22:51.304Z,20.39
2019-04-21T05:23:43.014Z,20.36
2019-04-21T05:24:44.300Z,20.36
2019-04-21T05:25:41.528Z,20.34
2019-04-21T05:26:44.782Z,20.37
2019-04-21T05:27:38.370Z,20.31
2019-04-21T05:28:37.347Z,20.34
2019-04-21T05:29:49.545Z,20.36
2019-04-21T05:30:49.032Z,20.36
2019-04-21T05:31:52.418Z,20.39
2019-04-21T05:32:45.155Z,20.36
2019-04-21T05:33:46.337Z,20.39
2019-04-21T05:34:41.229Z,20.37
2019-04-21T05:35:46.179Z,20.39
2019-04-21T05:36:38.240Z,20.36
2019-04-21T05:37:42.890Z,20.39
2019-04-21T05:38:41.781Z,20.40
2019-04-21T05:39:37.799Z,20.32
2019-04-21T05:40:38.829Z,20.37
2019-04-21T05:41:36.233Z,20.36
2019-04-21T05:42:39.970Z,20.32
2019-04-21T05:43:46.742Z,20.34
2019-04-21T05:44:58.839Z,20.40
2019-04-21T05:45:47.387Z,20.32
2019-04-21T05:46:49.224Z,20.32
2019-04-21T05:47:46.326Z,20.34
2019-04-21T05:48:48.408Z,20.31
2019-04-21T05:49:48.260Z,20.40
2019-04-21T05:50:46.217Z,20.36
2019-04-21T05:51:41.054Z,20.40
2019-04-21T05:52:40.718Z,20.34
2019-04-21T05:53:48.861Z,20.37
2019-04-21T05:54:52.759Z,20.36
2019-04-21T05:55:50.240Z,20.37
2019-04-21T05:56:40.660Z,20.37
2019-04-21T05:57:46.594Z,20.34
2019-04-21T05:58:43.973Z,20.41
2019-04-21T05:59:43.547Z,20.39
2019-04-21T06:01:06.332Z,20.34
2019-04-21T06:01:46.412Z,20.36
2019-04-21T06:02:56.329Z,20.29
2019-04-21T06:03:52.756Z,20.36
2019-04-21T06:06:08.576Z,20.39
2019-04-21T06:06:48.146Z,20.40
2019-04-21T06:07:46.127Z,20.34
2019-04-21T06:08:42.410Z,20.34
2019-04-21T06:09:52.553Z,20.37
2019-04-21T06:10:47.396Z,20.36
2019-04-21T06:11:45.914Z,20.32
2019-04-21T06:12:57.730Z,20.40
2019-04-21T06:14:04.629Z,20.40
2019-04-21T06:14:52.091Z,20.36
2019-04-21T06:18:11.737Z,20.32
2019-04-21T06:19:13.766Z,20.40
2019-04-21T06:20:19.193Z,20.29
2019-04-21T06:21:09.819Z,20.36
2019-04-21T06:22:06.473Z,20.37
2019-04-21T06:23:02.982Z,20.37
2019-04-21T06:24:13.053Z,20.37
2019-04-21T06:25:31.200Z,20.39
2019-04-21T06:26:25.440Z,20.32
2019-04-21T06:28:06.066Z,20.36
2019-04-21T06:29:04.227Z,20.43
2019-04-21T06:30:05.240Z,20.43
2019-04-21T06:32:59.012Z,20.37
2019-04-21T06:34:03.734Z,20.32
2019-04-21T06:35:12.715Z,20.34
2019-04-21T06:36:23.580Z,20.26
2019-04-21T06:37:23.074Z,20.39
2019-04-21T06:38:16.573Z,20.39
2019-04-21T06:41:13.483Z,20.32
2019-04-21T06:42:07.338Z,20.36
2019-04-21T06:43:20.858Z,20.31
2019-04-21T06:45:11.745Z,20.37
2019-04-21T06:46:12.285Z,20.39
2019-04-21T06:47:06.077Z,20.36
2019-04-21T06:48:12.225Z,20.39
2019-04-21T06:49:03.098Z,20.40
2019-04-21T06:50:12.252Z,20.39
2019-04-21T06:51:09.358Z,20.28
2019-04-21T06:52:13.337Z,20.34
2019-04-21T06:53:04.005Z,20.32
2019-04-21T06:54:09.618Z,20.34
2019-04-21T06:55:12.525Z,20.37
2019-04-21T06:56:06.081Z,20.34
2019-04-21T06:57:00.755Z,20.44
2019-04-21T06:58:06.642Z,20.41
2019-04-21T06:59:06.758Z,20.34
2019-04-21T07:00:03.485Z,20.31
2019-04-21T07:01:10.216Z,20.37
2019-04-21T07:02:21.311Z,20.34
2019-04-21T07:03:16.040Z,20.36
2019-04-21T07:04:11.760Z,20.48
2019-04-21T07:06:09.525Z,20.37
2019-04-21T07:07:05.832Z,20.50
2019-04-21T07:08:23.275Z,20.32
2019-04-21T07:09:15.949Z,20.36
2019-04-21T07:10:22.845Z,20.34
2019-04-21T07:11:04.326Z,20.37
2019-04-21T07:12:02.266Z,20.34
2019-04-21T07:13:03.199Z,20.37
2019-04-21T07:14:24.384Z,20.51
2019-04-21T07:15:03.319Z,20.32
2019-04-21T07:16:10.764Z,20.36
2019-04-21T07:17:11.538Z,20.39
2019-04-21T07:18:09.298Z,20.32
2019-04-21T07:19:13.182Z,20.39
2019-04-21T07:20:08.401Z,20.37
2019-04-21T07:21:09.561Z,20.39
2019-04-21T07:22:03.278Z,20.36
2019-04-21T07:23:13.359Z,20.34
2019-04-21T07:24:08.247Z,20.36
2019-04-21T07:25:09.123Z,20.34
2019-04-21T07:26:05.699Z,20.37
2019-04-21T07:27:09.963Z,20.37
2019-04-21T07:28:02.898Z,20.32
2019-04-21T07:29:07.670Z,20.41
2019-04-21T07:30:04.318Z,20.34
2019-04-21T07:31:09.880Z,20.39
2019-04-21T07:32:10.341Z,20.40
2019-04-21T07:33:24.007Z,20.39
2019-04-21T07:34:11.056Z,20.32
2019-04-21T07:35:22.201Z,20.36
2019-04-21T07:37:20.356Z,20.32
2019-04-21T07:38:02.913Z,20.32
2019-04-21T07:39:00.475Z,20.29
2019-04-21T07:40:01.840Z,20.47
2019-04-21T07:40:59.443Z,20.34
2019-04-21T07:41:59.325Z,20.31
2019-04-21T07:43:01.413Z,20.43
2019-04-21T07:43:58.948Z,20.39
2019-04-21T07:44:59.365Z,20.34
2019-04-21T07:45:58.512Z,20.34
2019-04-21T07:46:58.544Z,20.36
2019-04-21T07:48:06.586Z,20.39
2019-04-21T07:49:01.786Z,20.31
2019-04-21T07:50:00.647Z,20.43
2019-04-21T07:51:12.491Z,20.31
2019-04-21T07:52:03.400Z,20.32
2019-04-21T07:53:12.738Z,20.43
2019-04-21T07:54:15.360Z,20.34
2019-04-21T07:55:19.269Z,20.34
2019-04-21T07:55:46.976Z,20.36
2019-04-21T07:56:52.442Z,20.36
2019-04-21T07:58:02.602Z,20.43
2019-04-21T07:59:02.206Z,20.32
2019-04-21T08:00:15.050Z,20.47
2019-04-21T08:01:12.069Z,20.36
2019-04-21T08:02:01.244Z,20.43
2019-04-21T08:03:08.158Z,20.37
2019-04-21T08:04:15.276Z,20.39
2019-04-21T08:05:08.809Z,20.39
2019-04-21T08:06:03.675Z,20.50
2019-04-21T08:07:06.326Z,20.40
2019-04-21T08:08:19.059Z,20.47
2019-04-21T08:08:59.459Z,20.47
2019-04-21T08:09:57.062Z,20.36
2019-04-21T08:11:01.680Z,20.39
2019-04-21T08:12:01.403Z,20.34
2019-04-21T08:13:04.230Z,20.48
2019-04-21T08:14:00.646Z,20.40
2019-04-21T08:15:13.948Z,20.36
2019-04-21T08:16:04.671Z,20.43
2019-04-21T08:17:02.901Z,20.47
2019-04-21T08:18:07.502Z,20.48
2019-04-21T08:19:09.658Z,20.43
2019-04-21T08:19:59.148Z,20.43
2019-04-21T08:21:04.353Z,20.37
2019-04-21T08:22:09.651Z,20.47
2019-04-21T08:23:10.014Z,20.37
2019-04-21T08:23:59.895Z,20.50
2019-04-21T08:25:06.952Z,20.47
2019-04-21T08:26:14.560Z,20.48
2019-04-21T08:27:05.128Z,20.50
2019-04-21T08:28:22.510Z,20.37
2019-04-21T08:29:15.874Z,20.43
2019-04-21T08:30:07.463Z,20.50
2019-04-21T08:31:01.795Z,20.48
2019-04-21T08:33:10.663Z,20.56
2019-04-21T08:34:08.411Z,20.47
2019-04-21T08:35:20.765Z,20.47
2019-04-21T08:37:04.188Z,20.40
2019-04-21T08:38:05.621Z,20.41
2019-04-21T08:38:59.748Z,20.39
2019-04-21T08:41:03.611Z,20.50
2019-04-21T08:42:04.424Z,20.41
2019-04-21T08:43:01.165Z,20.51
2019-04-21T08:43:58.896Z,20.47
2019-04-21T08:45:06.016Z,20.44
2019-04-21T08:46:01.535Z,20.44
2019-04-21T08:47:07.694Z,20.43
2019-04-21T08:48:06.611Z,20.40
2019-04-21T08:49:00.564Z,20.50
2019-04-21T08:50:03.453Z,20.52
2019-04-21T08:51:18.526Z,20.40
2019-04-21T08:52:14.398Z,20.51
2019-04-21T08:52:59.789Z,20.51
2019-04-21T08:54:07.380Z,20.47
2019-04-21T08:55:07.078Z,20.56
2019-04-21T08:56:09.989Z,20.48
2019-04-21T08:57:06.141Z,20.48
2019-04-21T08:58:15.981Z,20.48
2019-04-21T08:59:07.489Z,20.48
2019-04-21T09:00:06.943Z,20.50
2019-04-21T09:01:14.214Z,20.50
2019-04-21T09:02:02.594Z,20.50
2019-04-21T09:03:02.358Z,20.56
2019-04-21T09:04:04.255Z,20.48
2019-04-21T09:04:59.143Z,20.47
2019-04-21T09:06:09.231Z,20.47
2019-04-21T09:07:19.798Z,20.48
2019-04-21T09:08:06.658Z,20.43
2019-04-21T09:09:04.696Z,20.48
2019-04-21T09:09:57.854Z,20.47
2019-04-21T09:10:59.605Z,20.40
2019-04-21T09:11:59.675Z,20.51
2019-04-21T09:12:58.865Z,20.52
2019-04-21T09:14:02.327Z,20.47
2019-04-21T09:15:04.678Z,20.50
2019-04-21T09:15:59.052Z,20.55
2019-04-21T09:16:56.446Z,20.48
2019-04-21T09:17:54.751Z,20.48
2019-04-21T09:18:54.115Z,20.55
2019-04-21T09:20:07.878Z,20.48
2019-04-21T09:21:04.589Z,20.50
2019-04-21T09:22:02.411Z,20.48
2019-04-21T09:23:01.015Z,20.51
2019-04-21T09:23:56.368Z,20.48
2019-04-21T09:24:56.031Z,20.48
2019-04-21T09:25:58.766Z,20.44
2019-04-21T09:26:57.308Z,20.55
2019-04-21T09:28:02.327Z,20.56
2019-04-21T09:28:54.513Z,20.51
2019-04-21T09:29:46.792Z,20.47
2019-04-21T09:30:48.839Z,20.47
2019-04-21T09:31:44.710Z,20.47
2019-04-21T09:32:42.558Z,20.43
2019-04-21T09:33:48.432Z,20.59
2019-04-21T09:34:45.515Z,20.47
2019-04-21T09:35:49.198Z,20.44
2019-04-21T09:36:46.438Z,20.40
2019-04-21T09:37:51.639Z,20.44
2019-04-21T09:38:43.839Z,20.52
2019-04-21T09:39:46.695Z,20.56
2019-04-21T09:40:45.856Z,20.44
2019-04-21T09:41:42.739Z,20.52
2019-04-21T09:42:50.556Z,20.50
2019-04-21T09:43:46.593Z,20.50
2019-04-21T09:44:45.420Z,20.47
2019-04-21T09:45:40.790Z,20.56
2019-04-21T09:46:49.862Z,20.56
2019-04-21T09:47:50.145Z,20.50
2019-04-21T09:48:51.250Z,20.44
2019-04-21T09:49:43.191Z,20.48
2019-04-21T09:50:41.446Z,20.48
2019-04-21T09:51:41.683Z,20.51
2019-04-21T09:52:48.895Z,20.52
2019-04-21T09:53:43.583Z,20.44
2019-04-21T09:54:52.051Z,20.55
2019-04-21T09:55:50.243Z,20.56
2019-04-21T09:56:50.402Z,20.48
2019-04-21T09:57:49.534Z,20.50
2019-04-21T09:58:46.798Z,20.52
2019-04-21T09:59:47.621Z,20.51
2019-04-21T10:00:49.909Z,20.50
2019-04-21T10:01:57.530Z,20.47
2019-04-21T10:02:51.609Z,20.51
2019-04-21T10:03:47.383Z,20.47
2019-04-21T10:04:42.476Z,20.48
2019-04-21T10:05:41.595Z,20.48
2019-04-21T10:06:40.279Z,20.48
2019-04-21T10:07:42.903Z,20.50
2019-04-21T10:08:40.559Z,20.50
2019-04-21T10:09:40.537Z,20.48
2019-04-21T10:10:40.319Z,20.47
2019-04-21T10:11:41.701Z,20.56
2019-04-21T10:12:41.097Z,20.51
2019-04-21T10:13:40.236Z,20.55
2019-04-21T10:14:40.945Z,20.52
2019-04-21T10:15:41.961Z,20.58
2019-04-21T10:16:40.635Z,20.51
2019-04-21T10:17:41.674Z,20.51
2019-04-21T10:18:40.372Z,20.55
2019-04-21T10:19:42.010Z,20.59
2019-04-21T10:20:40.636Z,20.51
2019-04-21T10:21:40.314Z,20.50
2019-04-21T10:22:41.408Z,20.51
2019-04-21T10:23:41.570Z,20.48
2019-04-21T10:24:48.829Z,20.50
2019-04-21T10:25:40.930Z,20.51
2019-04-21T10:26:40.978Z,20.50
2019-04-21T10:27:41.141Z,20.52
2019-04-21T10:28:41.249Z,20.50
2019-04-21T10:29:43.102Z,20.48
2019-04-21T10:30:40.744Z,20.52
2019-04-21T10:31:40.782Z,20.55
2019-04-21T10:32:48.367Z,20.51
2019-04-21T10:33:40.106Z,20.48
2019-04-21T10:34:49.466Z,20.50
2019-04-21T10:35:41.241Z,20.55
2019-04-21T10:36:40.875Z,20.48
2019-04-21T10:37:49.779Z,20.55
2019-04-21T10:38:46.439Z,20.48
2019-04-21T10:40:51.586Z,20.55
2019-04-21T10:41:51.066Z,20.48
2019-04-21T10:42:50.081Z,20.51
2019-04-21T10:43:49.731Z,20.55
2019-04-21T10:44:49.702Z,20.55
2019-04-21T10:45:50.710Z,20.51
2019-04-21T10:46:51.834Z,20.51
2019-04-21T10:47:49.686Z,20.55
2019-04-21T10:48:50.636Z,20.51
2019-04-21T10:49:50.665Z,20.50
2019-04-21T10:50:49.505Z,20.56
2019-04-21T10:51:50.740Z,20.52
2019-04-21T10:52:50.943Z,20.59
2019-04-21T10:53:57.935Z,20.52
2019-04-21T10:55:14.211Z,20.55
2019-04-21T10:56:03.770Z,20.48
2019-04-21T10:56:50.801Z,20.56
2019-04-21T10:57:50.477Z,20.52
2019-04-21T10:58:50.018Z,20.56
2019-04-21T10:59:52.444Z,20.47
2019-04-21T11:00:51.002Z,20.58
2019-04-21T11:01:50.463Z,20.59
2019-04-21T11:02:50.672Z,20.56
2019-04-21T11:03:50.585Z,20.55
2019-04-21T11:04:58.527Z,20.47
2019-04-21T11:05:50.511Z,20.51
2019-04-21T11:06:50.482Z,20.52
2019-04-21T11:08:00.913Z,20.51
2019-04-21T11:08:54.113Z,20.48
2019-04-21T11:09:51.847Z,20.59
2019-04-21T11:10:50.266Z,20.60
2019-04-21T11:11:51.378Z,20.55
2019-04-21T11:12:50.589Z,20.51
2019-04-21T11:13:50.538Z,20.51
2019-04-21T11:14:51.460Z,20.55
2019-04-21T11:15:49.268Z,20.62
2019-04-21T11:16:51.521Z,20.50
2019-04-21T11:17:50.606Z,20.51
2019-04-21T11:18:49.248Z,20.50
2019-04-21T11:19:50.658Z,20.62
2019-04-21T11:20:49.088Z,20.52
2019-04-21T11:21:49.385Z,20.52
2019-04-21T11:22:49.526Z,20.52
2019-04-21T11:23:50.129Z,20.55
2019-04-21T11:24:49.491Z,20.55
2019-04-21T11:25:49.543Z,20.55
2019-04-21T11:26:49.714Z,20.48
2019-04-21T11:27:49.173Z,20.58
2019-04-21T11:28:50.580Z,20.55
2019-04-21T11:29:49.433Z,20.51
2019-04-21T11:30:50.875Z,20.51
2019-04-21T11:31:49.367Z,20.59
2019-04-21T11:32:49.785Z,20.50
2019-04-21T11:33:49.277Z,20.51
2019-04-21T11:34:49.406Z,20.55
2019-04-21T11:35:51.078Z,20.56
2019-04-21T11:36:49.916Z,20.62
2019-04-21T11:37:50.215Z,20.51
2019-04-21T11:39:05.352Z,20.52
2019-04-21T11:39:57.960Z,20.48
2019-04-21T11:40:50.059Z,20.60
2019-04-21T11:41:49.821Z,20.47
2019-04-21T11:42:48.894Z,20.56
2019-04-21T11:43:48.999Z,20.59
2019-04-21T11:44:49.475Z,20.58
2019-04-21T11:45:50.496Z,20.52
2019-04-21T11:46:48.968Z,20.55
2019-04-21T11:47:50.189Z,20.52
2019-04-21T11:48:50.313Z,20.59
2019-04-21T11:49:49.332Z,20.60
2019-04-21T11:50:48.886Z,20.62
2019-04-21T11:51:51.055Z,20.65
2019-04-21T11:52:49.369Z,20.55
2019-04-21T11:53:50.467Z,20.56
2019-04-21T11:54:49.002Z,20.51
2019-04-21T11:55:51.796Z,20.56
2019-04-21T11:56:50.661Z,20.51
2019-04-21T11:57:50.171Z,20.51
2019-04-21T11:58:49.935Z,20.62
2019-04-21T11:59:48.798Z,20.55
2019-04-21T12:00:50.915Z,20.51
2019-04-21T12:01:49.787Z,20.58
2019-04-21T12:02:48.767Z,20.51
2019-04-21T12:03:49.662Z,20.55
2019-04-21T12:04:49.555Z,20.58
2019-04-21T12:05:48.821Z,20.52
2019-04-21T12:06:49.517Z,20.56
2019-04-21T12:07:49.364Z,20.60
2019-04-21T12:08:52.547Z,20.51
2019-04-21T12:09:48.665Z,20.52
2019-04-21T12:10:49.370Z,20.60
2019-04-21T12:11:49.384Z,20.62
2019-04-21T12:12:48.715Z,20.55
2019-04-21T12:13:56.564Z,20.58
2019-04-21T12:14:57.566Z,20.52
2019-04-21T12:17:16.313Z,20.58
2019-04-21T12:18:25.063Z,20.50
2019-04-21T12:19:22.937Z,20.55
2019-04-21T12:20:24.323Z,20.63
2019-04-21T12:21:23.367Z,20.60
2019-04-21T12:22:28.199Z,20.55
2019-04-21T12:24:24.967Z,20.50
2019-04-21T12:25:25.061Z,20.56
2019-04-21T12:26:24.306Z,20.62
2019-04-21T12:27:23.948Z,20.51
2019-04-21T12:28:24.051Z,20.58
2019-04-21T12:29:24.834Z,20.59
2019-04-21T12:30:24.103Z,20.56
2019-04-21T12:31:25.456Z,20.58
2019-04-21T12:32:24.142Z,20.52
2019-04-21T12:33:24.340Z,20.52
2019-04-21T12:34:25.860Z,20.56
2019-04-21T12:35:26.013Z,20.60
2019-04-21T12:36:24.282Z,20.60
2019-04-21T12:37:25.123Z,20.58
2019-04-21T12:38:36.941Z,20.51
2019-04-21T12:39:25.085Z,20.51
2019-04-21T12:40:24.332Z,20.52
2019-04-21T12:41:24.610Z,20.52
2019-04-21T12:42:24.838Z,20.58
2019-04-21T12:43:24.336Z,20.60
2019-04-21T12:44:24.610Z,20.63
2019-04-21T12:45:24.121Z,20.56
2019-04-21T12:46:23.653Z,20.52
2019-04-21T12:47:23.906Z,20.59
2019-04-21T12:48:24.053Z,20.60
2019-04-21T12:49:25.516Z,20.55
2019-04-21T12:50:23.708Z,20.55
2019-04-21T12:51:23.946Z,20.52
2019-04-21T12:52:24.001Z,20.60
2019-04-21T12:53:23.921Z,20.56
2019-04-21T12:54:23.860Z,20.55
2019-04-21T12:55:30.721Z,20.55
2019-04-21T12:56:25.325Z,20.59
2019-04-21T12:57:23.566Z,20.59
2019-04-21T12:58:23.762Z,20.60
2019-04-21T12:59:24.582Z,20.59
2019-04-21T13:00:24.822Z,20.50
2019-04-21T13:01:25.076Z,20.60
2019-04-21T13:02:23.459Z,20.56
2019-04-21T13:03:25.184Z,20.59
2019-04-21T13:04:24.363Z,20.59
2019-04-21T13:05:23.494Z,20.56
2019-04-21T13:06:23.537Z,20.58
2019-04-21T13:07:25.730Z,20.51
2019-04-21T13:08:23.454Z,20.55
2019-04-21T13:09:24.443Z,20.51
2019-04-21T13:10:24.519Z,20.52
2019-04-21T13:11:23.450Z,20.56
2019-04-21T13:12:24.851Z,20.56
2019-04-21T13:13:24.092Z,20.59
2019-04-21T13:14:24.160Z,20.55
2019-04-21T13:15:25.257Z,20.51
2019-04-21T13:16:25.340Z,20.59
2019-04-21T13:17:24.001Z,20.52
2019-04-21T13:18:23.943Z,20.63
2019-04-21T13:19:25.247Z,20.60
2019-04-21T13:20:23.391Z,20.52
2019-04-21T13:21:24.327Z,20.59
2019-04-21T13:22:23.810Z,20.62
2019-04-21T13:23:23.344Z,20.51
2019-04-21T13:24:24.145Z,20.60
2019-04-21T13:25:24.099Z,20.59
2019-04-21T13:26:35.878Z,20.58
2019-04-21T13:27:24.784Z,20.58
2019-04-21T13:28:24.930Z,20.59
2019-04-21T13:29:23.945Z,20.62
2019-04-21T13:30:24.231Z,20.59
2019-04-21T13:31:24.559Z,20.58
2019-04-21T13:32:23.197Z,20.60
2019-04-21T13:33:23.381Z,20.51
2019-04-21T13:34:24.158Z,20.60
2019-04-21T13:35:23.349Z,20.55
2019-04-21T13:36:23.482Z,20.62
2019-04-21T13:37:23.683Z,20.51
2019-04-21T13:38:33.057Z,20.59
2019-04-21T13:39:50.671Z,20.55
2019-04-21T13:40:39.794Z,20.58
2019-04-21T13:41:37.594Z,20.58
2019-04-21T13:42:30.160Z,20.56
2019-04-21T13:43:25.106Z,20.60
2019-04-21T13:44:23.504Z,20.59
2019-04-21T13:45:23.964Z,20.59
2019-04-21T13:46:23.059Z,20.58
2019-04-21T13:47:24.915Z,20.59
2019-04-21T13:48:24.387Z,20.59
2019-04-21T13:49:23.466Z,20.58
2019-04-21T13:50:23.671Z,20.62
2019-04-21T13:51:22.986Z,20.58
2019-04-21T13:52:24.707Z,20.51